sensor_id;sensor_type;location;lat;lon;timestamp;pressure;altitude;pressure_sealevel;temperature;humidity
56414;BME280;42318;48.452;19.526;2023-04-28T00:00:39;98789.25;;;19.11;49.88
56414;BME280;42318;48.452;19.526;2023-04-28T00:08:21;98789.75;;;19.08;50.16
56414;BME280;42318;48.452;19.526;2023-04-28T00:15:56;98777.19;;;19.07;49.93
56414;BME280;42318;48.452;19.526;2023-04-28T00:23:29;98781.47;;;19.03;49.88
56414;BME280;42318;48.452;19.526;2023-04-28T00:31:00;98787.72;;;19.03;50.06
56414;BME280;42318;48.452;19.526;2023-04-28T00:38:31;98780.41;;;19.04;49.97
56414;BME280;42318;48.452;19.526;2023-04-28T00:46:01;98785.00;;;19.03;50.05
56414;BME280;42318;48.452;19.526;2023-04-28T00:53:32;98785.25;;;19.02;50.11
56414;BME280;42318;48.452;19.526;2023-04-28T01:01:04;98793.88;;;18.99;49.94
56414;BME280;42318;48.452;19.526;2023-04-28T01:08:37;98787.38;;;19.00;49.90
56414;BME280;42318;48.452;19.526;2023-04-28T01:16:08;98792.47;;;18.96;50.07
56414;BME280;42318;48.452;19.526;2023-04-28T01:23:39;98800.63;;;18.96;49.81
56414;BME280;42318;48.452;19.526;2023-04-28T01:31:10;98796.25;;;18.95;49.97
56414;BME280;42318;48.452;19.526;2023-04-28T01:38:41;98801.44;;;18.97;49.96
56414;BME280;42318;48.452;19.526;2023-04-28T01:46:12;98801.44;;;18.97;50.03
56414;BME280;42318;48.452;19.526;2023-04-28T01:53:42;98803.34;;;18.96;49.78
56414;BME280;42318;48.452;19.526;2023-04-28T02:01:13;98806.28;;;18.95;49.97
56414;BME280;42318;48.452;19.526;2023-04-28T02:08:44;98812.41;;;19.02;49.84
56414;BME280;42318;48.452;19.526;2023-04-28T02:16:14;98803.19;;;19.03;49.56
56414;BME280;42318;48.452;19.526;2023-04-28T02:23:45;98820.44;;;19.08;49.71
56414;BME280;42318;48.452;19.526;2023-04-28T02:31:17;98825.16;;;19.13;50.18
56414;BME280;42318;48.452;19.526;2023-04-28T02:38:47;98834.13;;;19.13;49.74
56414;BME280;42318;48.452;19.526;2023-04-28T02:46:18;98823.97;;;19.09;49.81
56414;BME280;42318;48.452;19.526;2023-04-28T02:53:49;98823.75;;;19.10;49.62
56414;BME280;42318;48.452;19.526;2023-04-28T03:01:20;98835.19;;;19.12;49.62
56414;BME280;42318;48.452;19.526;2023-04-28T03:08:50;98826.47;;;19.10;49.47
56414;BME280;42318;48.452;19.526;2023-04-28T03:16:21;98839.47;;;19.08;49.51
56414;BME280;42318;48.452;19.526;2023-04-28T03:23:52;98834.22;;;19.07;49.23
56414;BME280;42318;48.452;19.526;2023-04-28T03:31:23;98841.56;;;19.06;49.67
56414;BME280;42318;48.452;19.526;2023-04-28T03:38:54;98851.84;;;19.04;49.24
56414;BME280;42318;48.452;19.526;2023-04-28T03:46:25;98844.28;;;19.06;49.13
56414;BME280;42318;48.452;19.526;2023-04-28T03:53:55;98834.03;;;18.97;49.28
56414;BME280;42318;48.452;19.526;2023-04-28T04:01:26;98846.97;;;19.06;48.66
56414;BME280;42318;48.452;19.526;2023-04-28T04:08:57;98849.69;;;19.06;49.15
56414;BME280;42318;48.452;19.526;2023-04-28T04:16:28;98845.72;;;19.09;49.02
56414;BME280;42318;48.452;19.526;2023-04-28T04:23:59;98843.81;;;19.09;48.83
56414;BME280;42318;48.452;19.526;2023-04-28T04:31:30;98836.25;;;19.11;49.17
56414;BME280;42318;48.452;19.526;2023-04-28T04:39:02;98845.22;;;19.12;48.50
56414;BME280;42318;48.452;19.526;2023-04-28T04:46:33;98826.47;;;19.10;48.64
56414;BME280;42318;48.452;19.526;2023-04-28T04:54:04;98851.25;;;19.14;48.88
56414;BME280;42318;48.452;19.526;2023-04-28T05:01:35;98840.97;;;19.16;48.86
56414;BME280;42318;48.452;19.526;2023-04-28T05:09:05;98833.06;;;19.14;48.57
56414;BME280;42318;48.452;19.526;2023-04-28T05:16:37;98836.34;;;19.17;48.52
56414;BME280;42318;48.452;19.526;2023-04-28T05:24:08;98854.31;;;19.18;48.54
56414;BME280;42318;48.452;19.526;2023-04-28T05:31:39;98854.31;;;19.18;48.59
56414;BME280;42318;48.452;19.526;2023-04-28T05:39:10;98860.91;;;19.22;48.46
56414;BME280;42318;48.452;19.526;2023-04-28T05:46:41;98862.53;;;19.23;48.23
56414;BME280;42318;48.452;19.526;2023-04-28T05:54:12;98858.75;;;19.24;48.43
56414;BME280;42318;48.452;19.526;2023-04-28T06:01:42;98863.72;;;19.27;48.10
56414;BME280;42318;48.452;19.526;2023-04-28T06:09:13;98867.00;;;19.29;48.43
56414;BME280;42318;48.452;19.526;2023-04-28T06:16:44;98864.63;;;19.32;48.21
56414;BME280;42318;48.452;19.526;2023-04-28T06:24:15;98874.78;;;19.37;48.10
56414;BME280;42318;48.452;19.526;2023-04-28T06:31:46;98857.88;;;19.35;47.55
56414;BME280;42318;48.452;19.526;2023-04-28T06:39:16;98869.78;;;19.45;47.86
56414;BME280;42318;48.452;19.526;2023-04-28T06:46:47;98859.84;;;19.51;47.62
56414;BME280;42318;48.452;19.526;2023-04-28T06:54:18;98865.75;;;19.48;47.75
56414;BME280;42318;48.452;19.526;2023-04-28T07:01:49;98856.44;;;19.44;47.75
56414;BME280;42318;48.452;19.526;2023-04-28T07:09:19;98853.81;;;19.49;47.44
56414;BME280;42318;48.452;19.526;2023-04-28T07:16:50;98855.44;;;19.50;47.51
56414;BME280;42318;48.452;19.526;2023-04-28T07:24:21;98847.78;;;19.47;47.58
56414;BME280;42318;48.452;19.526;2023-04-28T07:31:52;98839.97;;;19.51;47.68
56414;BME280;42318;48.452;19.526;2023-04-28T07:39:23;98833.38;;;19.46;47.71
56414;BME280;42318;48.452;19.526;2023-04-28T07:46:55;98818.69;;;19.31;48.31
56414;BME280;42318;48.452;19.526;2023-04-28T07:54:25;98823.53;;;19.29;48.28
56414;BME280;42318;48.452;19.526;2023-04-28T08:01:56;98812.00;;;19.22;48.48
56414;BME280;42318;48.452;19.526;2023-04-28T08:09:27;98802.59;;;19.12;48.64
56414;BME280;42318;48.452;19.526;2023-04-28T08:16:58;98799.28;;;19.10;48.55
56414;BME280;42318;48.452;19.526;2023-04-28T08:24:29;98796.00;;;19.08;48.73
56414;BME280;42318;48.452;19.526;2023-04-28T08:32:00;98787.03;;;19.08;48.83
56414;BME280;42318;48.452;19.526;2023-04-28T08:39:31;98778.88;;;19.08;48.73
56414;BME280;42318;48.452;19.526;2023-04-28T08:47:10;98777.00;;;19.08;48.88
56414;BME280;42318;48.452;19.526;2023-04-28T08:54:43;98768.34;;;19.11;48.82
56414;BME280;42318;48.452;19.526;2023-04-28T09:02:14;98761.38;;;19.16;48.53
56414;BME280;42318;48.452;19.526;2023-04-28T09:09:44;98756.75;;;19.16;48.74
56414;BME280;42318;48.452;19.526;2023-04-28T09:17:15;98756.84;;;19.21;48.52
56414;BME280;42318;48.452;19.526;2023-04-28T09:24:46;98750.94;;;19.24;48.79
56414;BME280;42318;48.452;19.526;2023-04-28T09:32:21;98738.25;;;19.30;48.45
56414;BME280;42318;48.452;19.526;2023-04-28T09:39:53;98731.91;;;19.24;48.57
56414;BME280;42318;48.452;19.526;2023-04-28T09:47:24;98725.56;;;19.19;48.67
56414;BME280;42318;48.452;19.526;2023-04-28T09:54:55;98720.63;;;19.16;48.76
56414;BME280;42318;48.452;19.526;2023-04-28T10:02:27;98711.66;;;19.15;48.78
56414;BME280;42318;48.452;19.526;2023-04-28T10:09:58;98697.50;;;19.13;48.72
56414;BME280;42318;48.452;19.526;2023-04-28T10:17:30;98679.78;;;19.10;48.75
56414;BME280;42318;48.452;19.526;2023-04-28T10:32:45;98666.28;;;19.16;49.00
56414;BME280;42318;48.452;19.526;2023-04-28T10:48:06;98644.06;;;19.19;48.80
56414;BME280;42318;48.452;19.526;2023-04-28T10:55:37;98644.06;;;19.19;48.71
56414;BME280;42318;48.452;19.526;2023-04-28T11:04:04;98616.91;;;19.19;48.76
56414;BME280;42318;48.452;19.526;2023-04-28T11:11:33;98616.91;;;19.19;48.84
56414;BME280;42318;48.452;19.526;2023-04-28T11:19:11;98597.31;;;19.17;49.02
56414;BME280;42318;48.452;19.526;2023-04-28T11:26:43;98601.75;;;19.23;49.02
56414;BME280;42318;48.452;19.526;2023-04-28T11:34:18;98590.06;;;19.22;49.00
56414;BME280;42318;48.452;19.526;2023-04-28T11:41:49;98591.16;;;19.21;48.91
56414;BME280;42318;48.452;19.526;2023-04-28T11:49:24;98593.03;;;19.21;48.80
56414;BME280;42318;48.452;19.526;2023-04-28T11:56:56;98591.41;;;19.20;49.09
56414;BME280;42318;48.452;19.526;2023-04-28T12:04:34;98597.41;;;19.22;48.68
56414;BME280;42318;48.452;19.526;2023-04-28T12:12:08;98582.19;;;19.21;49.14
56414;BME280;42318;48.452;19.526;2023-04-28T12:19:43;98570.50;;;19.20;49.00
56414;BME280;42318;48.452;19.526;2023-04-28T12:27:15;98574.28;;;19.19;48.99
56414;BME280;42318;48.452;19.526;2023-04-28T12:34:47;98560.38;;;19.16;49.09
56414;BME280;42318;48.452;19.526;2023-04-28T12:42:20;98537.00;;;19.14;49.26
56414;BME280;42318;48.452;19.526;2023-04-28T12:49:52;98519.31;;;19.12;49.19
56414;BME280;42318;48.452;19.526;2023-04-28T12:57:23;98494.03;;;19.11;49.19
56414;BME280;42318;48.452;19.526;2023-04-28T13:04:54;98496.75;;;19.11;49.38
56414;BME280;42318;48.452;19.526;2023-04-28T13:12:25;98488.84;;;19.10;49.29
56414;BME280;42318;48.452;19.526;2023-04-28T13:19:55;98476.91;;;19.11;49.11
56414;BME280;42318;48.452;19.526;2023-04-28T13:27:26;98474.72;;;19.08;49.22
56414;BME280;42318;48.452;19.526;2023-04-28T13:35:00;98469.28;;;19.08;49.36
56414;BME280;42318;48.452;19.526;2023-04-28T13:42:30;98472.31;;;19.11;49.19
56414;BME280;42318;48.452;19.526;2023-04-28T13:50:01;98457.09;;;19.10;49.14
56414;BME280;42318;48.452;19.526;2023-04-28T13:57:32;98458.16;;;19.09;49.27
56414;BME280;42318;48.452;19.526;2023-04-28T14:05:06;98450.00;;;19.09;49.22
56414;BME280;42318;48.452;19.526;2023-04-28T14:12:37;98435.38;;;19.10;48.79
56414;BME280;42318;48.452;19.526;2023-04-28T14:20:08;98429.44;;;19.13;49.23
56414;BME280;42318;48.452;19.526;2023-04-28T14:27:41;98442.25;;;19.18;48.98
56414;BME280;42318;48.452;19.526;2023-04-28T14:35:12;98437.72;;;19.24;48.89
56414;BME280;42318;48.452;19.526;2023-04-28T14:42:43;98432.28;;;19.24;48.91
56414;BME280;42318;48.452;19.526;2023-04-28T14:50:13;98429.63;;;19.29;48.92
56414;BME280;42318;48.452;19.526;2023-04-28T14:57:44;98431.84;;;19.32;48.83
56414;BME280;42318;48.452;19.526;2023-04-28T15:05:16;98431.31;;;19.35;48.62
56414;BME280;42318;48.452;19.526;2023-04-28T15:12:47;98417.22;;;19.38;48.66
56414;BME280;42318;48.452;19.526;2023-04-28T15:20:18;98416.16;;;19.39;48.76
56414;BME280;42318;48.452;19.526;2023-04-28T15:27:49;98422.09;;;19.36;48.67
56414;BME280;42318;48.452;19.526;2023-04-28T15:35:20;98422.59;;;19.33;48.95
56414;BME280;42318;48.452;19.526;2023-04-28T15:42:51;98413.31;;;19.29;48.99
56414;BME280;42318;48.452;19.526;2023-04-28T15:50:22;98408.66;;;19.24;48.89
56414;BME280;42318;48.452;19.526;2023-04-28T15:57:54;98396.13;;;19.23;48.96
56414;BME280;42318;48.452;19.526;2023-04-28T16:05:25;98398.78;;;19.18;49.12
56414;BME280;42318;48.452;19.526;2023-04-28T16:12:56;98399.63;;;19.19;49.35
56414;BME280;42318;48.452;19.526;2023-04-28T16:20:28;98379.22;;;19.16;49.24
56414;BME280;42318;48.452;19.526;2023-04-28T16:27:59;98372.13;;;19.15;49.22
56414;BME280;42318;48.452;19.526;2023-04-28T16:35:31;98368.03;;;19.12;49.10
56414;BME280;42318;48.452;19.526;2023-04-28T16:43:02;98358.00;;;19.13;49.12
56414;BME280;42318;48.452;19.526;2023-04-28T16:50:32;98350.09;;;19.11;49.29
56414;BME280;42318;48.452;19.526;2023-04-28T16:58:03;98350.09;;;19.11;49.17
56414;BME280;42318;48.452;19.526;2023-04-28T17:05:35;98351.19;;;19.10;48.89
56414;BME280;42318;48.452;19.526;2023-04-28T17:13:05;98346.81;;;19.09;49.29
56414;BME280;42318;48.452;19.526;2023-04-28T17:20:36;98338.94;;;19.08;49.34
56414;BME280;42318;48.452;19.526;2023-04-28T17:28:09;98329.34;;;19.05;49.31
56414;BME280;42318;48.452;19.526;2023-04-28T17:35:40;98328.06;;;19.08;49.38
56414;BME280;42318;48.452;19.526;2023-04-28T17:43:11;98338.66;;;19.09;49.55
56414;BME280;42318;48.452;19.526;2023-04-28T17:50:42;98329.44;;;19.10;49.36
56414;BME280;42318;48.452;19.526;2023-04-28T17:58:14;98330.59;;;19.14;49.24
56414;BME280;42318;48.452;19.526;2023-04-28T18:05:45;98327.03;;;19.14;49.37
56414;BME280;42318;48.452;19.526;2023-04-28T18:13:16;98328.44;;;19.17;49.07
56414;BME280;42318;48.452;19.526;2023-04-28T18:20:46;98339.03;;;19.18;49.52
56414;BME280;42318;48.452;19.526;2023-04-28T18:28:18;98326.53;;;19.17;49.53
56414;BME280;42318;48.452;19.526;2023-04-28T18:35:57;98318.38;;;19.17;49.51
56414;BME280;42318;48.452;19.526;2023-04-28T18:43:28;98326.53;;;19.17;49.53
56414;BME280;42318;48.452;19.526;2023-04-28T18:50:59;98339.88;;;19.19;49.68
56414;BME280;42318;48.452;19.526;2023-04-28T18:58:31;98332.78;;;19.18;49.86
56414;BME280;42318;48.452;19.526;2023-04-28T19:06:02;98336.31;;;19.18;49.73
56414;BME280;42318;48.452;19.526;2023-04-28T19:13:33;98330.06;;;19.18;49.96
56414;BME280;42318;48.452;19.526;2023-04-28T19:21:04;98331.16;;;19.17;49.40
56414;BME280;42318;48.452;19.526;2023-04-28T19:28:35;98336.63;;;19.22;50.01
56414;BME280;42318;48.452;19.526;2023-04-28T19:36:06;98334.47;;;19.24;49.81
56414;BME280;42318;48.452;19.526;2023-04-28T19:43:39;98324.69;;;19.23;50.07
56414;BME280;42318;48.452;19.526;2023-04-28T19:51:10;98334.22;;;19.25;50.33
56414;BME280;42318;48.452;19.526;2023-04-28T19:58:40;98335.06;;;19.26;49.96
56414;BME280;42318;48.452;19.526;2023-04-28T20:06:15;98338.34;;;19.28;49.88
56414;BME280;42318;48.452;19.526;2023-04-28T20:13:46;98339.22;;;19.33;49.41
56414;BME280;42318;48.452;19.526;2023-04-28T20:21:18;98352.88;;;19.60;48.79
56414;BME280;42318;48.452;19.526;2023-04-28T20:28:49;98361.63;;;19.67;48.80
56414;BME280;42318;48.452;19.526;2023-04-28T20:36:20;98365.25;;;19.51;49.23
56414;BME280;42318;48.452;19.526;2023-04-28T20:43:51;98358.03;;;19.40;49.59
56414;BME280;42318;48.452;19.526;2023-04-28T20:51:22;98369.09;;;19.33;49.75
56414;BME280;42318;48.452;19.526;2023-04-28T20:58:53;98368.22;;;19.28;49.82
56414;BME280;42318;48.452;19.526;2023-04-28T21:06:25;98360.56;;;19.25;49.98
56414;BME280;42318;48.452;19.526;2023-04-28T21:13:56;98371.75;;;19.28;49.65
56414;BME280;42318;48.452;19.526;2023-04-28T21:21:26;98369.28;;;19.27;49.65
56414;BME280;42318;48.452;19.526;2023-04-28T21:28:58;98373.41;;;19.29;49.73
56414;BME280;42318;48.452;19.526;2023-04-28T21:36:29;98375.84;;;19.31;49.76
56414;BME280;42318;48.452;19.526;2023-04-28T21:44:00;98371.81;;;19.33;49.51
56414;BME280;42318;48.452;19.526;2023-04-28T21:51:31;98361.63;;;19.45;49.23
56414;BME280;42318;48.452;19.526;2023-04-28T21:59:02;98350.41;;;19.59;49.03
56414;BME280;42318;48.452;19.526;2023-04-28T22:06:33;98342.00;;;19.60;49.00
56414;BME280;42318;48.452;19.526;2023-04-28T22:14:04;98351.66;;;19.51;49.06
56414;BME280;42318;48.452;19.526;2023-04-28T22:21:38;98345.81;;;19.42;49.43
56414;BME280;42318;48.452;19.526;2023-04-28T22:29:09;98330.28;;;19.38;49.37
56414;BME280;42318;48.452;19.526;2023-04-28T22:36:39;98324.84;;;19.38;49.58
56414;BME280;42318;48.452;19.526;2023-04-28T22:44:11;98321.94;;;19.44;49.45
56414;BME280;42318;48.452;19.526;2023-04-28T22:51:42;98308.59;;;19.43;49.47
56414;BME280;42318;48.452;19.526;2023-04-28T22:59:13;98314.34;;;19.46;49.54
56414;BME280;42318;48.452;19.526;2023-04-28T23:06:44;98313.00;;;19.49;49.58
56414;BME280;42318;48.452;19.526;2023-04-28T23:14:15;98299.03;;;19.57;49.50
56414;BME280;42318;48.452;19.526;2023-04-28T23:21:45;98296.97;;;19.69;48.97
56414;BME280;42318;48.452;19.526;2023-04-28T23:29:16;98300.75;;;19.68;49.28
56414;BME280;42318;48.452;19.526;2023-04-28T23:36:47;98293.38;;;19.64;49.39
56414;BME280;42318;48.452;19.526;2023-04-28T23:44:18;98286.00;;;19.59;49.61
56414;BME280;42318;48.452;19.526;2023-04-28T23:51:49;98275.63;;;19.56;49.68
56414;BME280;42318;48.452;19.526;2023-04-28T23:59:20;98272.00;;;19.51;50.01
